createdAt,value
2019-04-26T00:01:03.643Z,99.90
2019-04-26T00:03:41.294Z,99.90
2019-04-26T00:06:12.723Z,99.90
2019-04-26T00:08:44.791Z,99.90
2019-04-26T00:11:34.908Z,99.90
2019-04-26T00:14:30.192Z,99.90
2019-04-26T00:17:03.487Z,99.90
2019-04-26T00:19:33.249Z,99.90
2019-04-26T00:22:03.104Z,99.90
2019-04-26T00:24:33.051Z,99.90
2019-04-26T00:27:02.679Z,99.90
2019-04-26T00:29:32.110Z,99.90
2019-04-26T00:32:01.683Z,99.90
2019-04-26T00:34:31.104Z,99.90
2019-04-26T00:37:00.714Z,99.90
2019-04-26T00:39:30.143Z,99.90
2019-04-26T00:41:59.991Z,99.90
2019-04-26T00:44:31.133Z,99.90
2019-04-26T00:47:01.319Z,99.90
2019-04-26T00:49:43.163Z,99.90
2019-04-26T00:52:05.348Z,99.90
2019-04-26T00:54:36.083Z,99.90
2019-04-26T00:57:05.900Z,99.90
2019-04-26T00:59:37.368Z,99.90
2019-04-26T01:02:12.406Z,99.90
2019-04-26T01:04:45.313Z,99.90
2019-04-26T01:07:15.673Z,99.90
2019-04-26T01:10:01.545Z,99.90
2019-04-26T01:12:31.719Z,99.90
2019-04-26T01:15:04.519Z,99.90
2019-04-26T01:17:37.387Z,99.90
2019-04-26T01:20:11.340Z,99.90
2019-04-26T01:23:04.938Z,99.90
2019-04-26T01:25:53.971Z,99.90
2019-04-26T01:28:33.565Z,99.90
2019-04-26T01:31:06.100Z,99.90
2019-04-26T01:33:37.489Z,99.90
2019-04-26T01:36:13.083Z,99.90
2019-04-26T01:38:48.295Z,99.90
2019-04-26T01:41:26.131Z,99.90
2019-04-26T01:44:12.986Z,99.90
2019-04-26T01:46:46.142Z,99.90
2019-04-26T01:49:17.154Z,99.90
2019-04-26T02:10:14.983Z,99.90
2019-04-26T02:12:50.434Z,99.90
2019-04-26T02:15:27.644Z,99.90
2019-04-26T02:18:00.491Z,99.90
2019-04-26T02:20:48.343Z,99.90
2019-04-26T02:23:25.183Z,99.90
2019-04-26T02:25:56.895Z,99.90
2019-04-26T02:28:26.806Z,99.90
2019-04-26T02:30:56.420Z,99.90
2019-04-26T02:33:27.476Z,99.90
2019-04-26T02:35:58.091Z,99.90
2019-04-26T02:38:31.458Z,99.90
2019-04-26T02:41:03.279Z,99.90
2019-04-26T02:43:33.882Z,99.90
2019-04-26T02:46:22.568Z,99.90
2019-04-26T02:49:28.591Z,99.90
2019-04-26T02:52:03.156Z,99.90
2019-04-26T02:54:45.394Z,99.90
2019-04-26T02:57:17.358Z,99.90
2019-04-26T02:59:47.550Z,99.90
2019-04-26T03:02:26.406Z,99.90
2019-04-26T03:04:57.858Z,99.90
2019-04-26T03:07:35.871Z,99.90
2019-04-26T03:10:09.075Z,99.90
2019-04-26T03:12:40.504Z,99.90
2019-04-26T03:15:30.365Z,99.90
2019-04-26T03:18:19.784Z,99.90
2019-04-26T03:20:56.292Z,99.90
2019-04-26T03:23:58.294Z,99.90
2019-04-26T03:26:47.480Z,99.90
2019-04-26T03:29:45.015Z,99.90
2019-04-26T03:32:18.652Z,99.90
2019-04-26T03:34:55.371Z,99.90
2019-04-26T03:38:05.263Z,99.90
2019-04-26T03:40:44.757Z,99.90
2019-04-26T03:43:19.779Z,99.90
2019-04-26T03:46:23.520Z,99.90
2019-04-26T03:49:17.985Z,99.90
2019-04-26T03:51:55.497Z,99.90
2019-04-26T03:54:26.234Z,99.90
2019-04-26T03:57:16.819Z,99.90
2019-04-26T04:00:22.499Z,99.90
2019-04-26T04:03:45.380Z,99.90
2019-04-26T04:06:18.641Z,99.90
2019-04-26T04:08:57.235Z,99.90
2019-04-26T04:11:33.619Z,99.90
2019-04-26T04:14:10.399Z,99.90
2019-04-26T04:16:51.184Z,99.90
2019-04-26T04:19:38.379Z,99.90
2019-04-26T04:22:15.349Z,99.90
2019-04-26T04:24:51.899Z,99.90
2019-04-26T04:27:33.829Z,99.90
2019-04-26T04:30:15.943Z,99.90
2019-04-26T04:32:52.162Z,99.90
2019-04-26T04:35:24.545Z,99.90
2019-04-26T04:38:08.572Z,99.90
2019-04-26T04:40:40.994Z,99.90
2019-04-26T04:43:34.598Z,99.90
2019-04-26T04:46:34.499Z,99.90
2019-04-26T04:49:36.961Z,99.90
2019-04-26T04:52:25.000Z,99.90
2019-04-26T04:55:06.643Z,99.90
2019-04-26T04:57:46.159Z,99.90
2019-04-26T05:00:34.042Z,99.90
2019-04-26T05:03:58.358Z,99.90
2019-04-26T05:10:12.642Z,99.90
2019-04-26T05:13:06.930Z,99.90
2019-04-26T05:15:52.793Z,99.90
2019-04-26T05:18:41.472Z,99.90
2019-04-26T05:21:36.295Z,99.90
2019-04-26T05:24:08.990Z,99.90
2019-04-26T05:27:03.916Z,99.90
2019-04-26T05:29:47.939Z,99.90
2019-04-26T05:32:41.796Z,99.90
2019-04-26T05:35:44.497Z,99.90
2019-04-26T05:38:43.779Z,99.90
2019-04-26T05:41:29.383Z,99.90
2019-04-26T05:44:20.466Z,99.90
2019-04-26T05:47:46.492Z,99.90
2019-04-26T05:51:12.761Z,99.90
2019-04-26T05:54:26.754Z,99.90
2019-04-26T05:57:06.602Z,99.90
2019-04-26T05:59:58.924Z,99.90
2019-04-26T06:03:22.924Z,99.90
2019-04-26T06:06:10.908Z,99.90
2019-04-26T06:09:37.058Z,99.90
2019-04-26T06:12:32.606Z,99.90
2019-04-26T06:15:33.227Z,99.90
2019-04-26T06:18:24.986Z,99.90
2019-04-26T06:21:07.052Z,99.90
2019-04-26T06:23:42.181Z,99.90
2019-04-26T06:26:33.895Z,99.90
2019-04-26T06:29:05.495Z,99.90
2019-04-26T06:31:43.563Z,99.90
2019-04-26T06:34:43.763Z,99.90
2019-04-26T06:37:22.166Z,99.90
2019-04-26T06:40:04.468Z,99.90
2019-04-26T06:42:36.583Z,99.90
2019-04-26T06:45:48.335Z,99.90
2019-04-26T06:48:29.277Z,99.90
2019-04-26T06:51:23.266Z,99.90
2019-04-26T06:53:46.563Z,99.90
2019-04-26T06:56:36.649Z,99.90
2019-04-26T06:59:36.281Z,99.90
2019-04-26T07:02:02.848Z,99.90
2019-04-26T07:04:39.719Z,99.90
2019-04-26T07:07:13.436Z,99.90
2019-04-26T07:09:55.047Z,99.90
2019-04-26T07:12:49.518Z,99.90
2019-04-26T07:15:36.910Z,99.90
2019-04-26T07:18:28.300Z,99.90
2019-04-26T07:21:10.537Z,99.90
2019-04-26T07:23:51.898Z,99.90
2019-04-26T07:26:55.637Z,99.90
2019-04-26T07:29:32.133Z,99.90
2019-04-26T07:32:05.301Z,99.90
2019-04-26T07:34:44.523Z,99.90
2019-04-26T07:37:35.771Z,99.90
2019-04-26T07:40:31.138Z,99.90
2019-04-26T07:43:15.400Z,99.90
2019-04-26T07:46:23.048Z,99.90
2019-04-26T07:49:12.572Z,99.90
2019-04-26T07:52:02.837Z,99.90
2019-04-26T07:54:52.352Z,99.90
2019-04-26T07:57:45.244Z,99.90
2019-04-26T08:00:27.983Z,99.90
2019-04-26T08:03:30.617Z,99.90
2019-04-26T08:06:24.154Z,99.90
2019-04-26T08:08:56.742Z,99.90
2019-04-26T08:11:32.981Z,99.90
2019-04-26T08:14:06.277Z,99.90
2019-04-26T08:16:58.924Z,99.90
2019-04-26T08:19:30.244Z,99.80
2019-04-26T08:22:14.898Z,99.70
2019-04-26T08:24:34.656Z,99.30
2019-04-26T08:27:13.628Z,99.60
2019-04-26T08:29:40.338Z,98.90
2019-04-26T08:32:15.486Z,98.10
2019-04-26T08:34:46.545Z,98.20
2019-04-26T08:37:39.739Z,98.20
2019-04-26T08:40:16.455Z,97.90
2019-04-26T08:42:53.319Z,97.90
2019-04-26T08:45:36.189Z,97.90
2019-04-26T08:48:27.720Z,97.40
2019-04-26T08:50:59.354Z,97.10
2019-04-26T08:53:30.667Z,97.10
2019-04-26T08:56:11.610Z,97.30
2019-04-26T08:58:42.725Z,97.50
2019-04-26T09:01:26.905Z,97.20
2019-04-26T09:04:05.457Z,97.20
2019-04-26T09:07:07.880Z,96.90
2019-04-26T09:09:39.217Z,97.40
2019-04-26T09:12:22.479Z,97.40
2019-04-26T09:14:47.990Z,97.80
2019-04-26T09:17:23.214Z,97.80
2019-04-26T09:19:58.071Z,96.80
2019-04-26T09:22:46.034Z,96.60
2019-04-26T09:25:39.184Z,95.70
2019-04-26T09:28:28.345Z,95.90
2019-04-26T09:31:07.431Z,95.70
2019-04-26T09:33:45.276Z,95.40
2019-04-26T09:36:14.883Z,96.20
2019-04-26T09:38:50.919Z,96.20
2019-04-26T09:41:26.615Z,96.10
2019-04-26T09:44:15.713Z,96.40
2019-04-26T09:47:17.886Z,96.40
2019-04-26T09:50:15.428Z,95.90
2019-04-26T09:52:50.003Z,95.70
2019-04-26T09:55:35.670Z,96.20
2019-04-26T10:01:24.140Z,95.40
2019-04-26T10:03:55.389Z,96.00
2019-04-26T10:06:26.113Z,95.00
2019-04-26T10:10:35.400Z,94.10
2019-04-26T10:16:49.218Z,93.90
2019-04-26T10:17:11.598Z,94.10
2019-04-26T10:19:31.904Z,92.80
2019-04-26T10:22:23.993Z,92.90
2019-04-26T10:25:20.736Z,92.60
2019-04-26T10:30:55.657Z,92.30
2019-04-26T10:33:36.594Z,92.80
2019-04-26T10:37:07.919Z,92.60
2019-04-26T10:40:36.026Z,91.50
2019-04-26T10:54:24.041Z,90.40
2019-04-26T10:57:00.983Z,90.90
2019-04-26T10:59:44.071Z,90.60
2019-04-26T11:02:16.786Z,90.50
2019-04-26T11:04:48.022Z,90.20
2019-04-26T11:07:19.704Z,90.70
2019-04-26T11:09:50.962Z,90.90
2019-04-26T11:12:25.769Z,90.90
2019-04-26T11:14:56.986Z,90.80
2019-04-26T11:17:26.671Z,90.80
2019-04-26T11:19:57.226Z,90.50
2019-04-26T11:22:33.163Z,87.70
2019-04-26T11:25:00.776Z,86.80
2019-04-26T11:27:31.278Z,88.30
2019-04-26T11:30:11.053Z,88.00
2019-04-26T11:32:33.176Z,88.30
2019-04-26T11:35:03.209Z,88.70
2019-04-26T11:37:32.970Z,87.30
2019-04-26T11:40:02.534Z,87.80
2019-04-26T11:42:33.666Z,88.60
2019-04-26T11:45:10.798Z,88.60
2019-04-26T11:47:54.276Z,88.90
2019-04-26T11:50:12.406Z,87.90
2019-04-26T11:52:43.751Z,86.00
2019-04-26T11:55:14.887Z,87.20
2019-04-26T11:57:47.839Z,87.60
2019-04-26T12:00:28.550Z,86.30
2019-04-26T12:02:59.318Z,85.60
2019-04-26T12:05:49.355Z,83.70
2019-04-26T12:08:24.063Z,84.40
2019-04-26T12:10:55.910Z,81.30
2019-04-26T12:13:26.727Z,76.20
2019-04-26T12:15:56.216Z,78.10
2019-04-26T12:18:25.678Z,76.20
2019-04-26T12:20:57.181Z,76.70
2019-04-26T12:23:26.970Z,75.90
2019-04-26T12:25:56.571Z,78.00
2019-04-26T12:28:26.090Z,78.60
2019-04-26T12:30:58.588Z,79.10
2019-04-26T12:33:28.175Z,79.30
2019-04-26T12:35:57.797Z,78.70
2019-04-26T12:38:30.319Z,80.00
2019-04-26T12:40:59.793Z,80.00
2019-04-26T12:43:29.369Z,79.90
2019-04-26T12:46:14.117Z,78.70
2019-04-26T12:48:46.068Z,77.10
2019-04-26T12:51:14.130Z,77.70
2019-04-26T12:53:45.901Z,74.20
2019-04-26T12:56:16.294Z,71.40
2019-04-26T12:58:49.850Z,71.20
2019-04-26T13:01:19.345Z,74.00
2019-04-26T13:04:10.891Z,73.00
2019-04-26T13:06:47.381Z,71.40
2019-04-26T13:09:21.885Z,74.30
2019-04-26T13:12:04.523Z,74.80
2019-04-26T13:14:56.242Z,75.80
2019-04-26T13:17:45.838Z,78.20
2019-04-26T13:20:18.869Z,78.20
2019-04-26T13:22:50.265Z,79.00
2019-04-26T13:25:40.002Z,78.00
2019-04-26T13:27:58.767Z,71.70
2019-04-26T13:30:33.116Z,72.00
2019-04-26T13:33:10.131Z,71.10
2019-04-26T13:35:45.417Z,73.30
2019-04-26T13:38:16.515Z,73.30
2019-04-26T13:40:47.866Z,74.00
2019-04-26T13:43:17.850Z,74.60
2019-04-26T13:46:09.810Z,73.30
2019-04-26T13:48:59.843Z,70.60
2019-04-26T13:51:48.947Z,67.20
2019-04-26T13:54:21.262Z,68.60
2019-04-26T13:56:52.130Z,69.30
2019-04-26T13:59:28.198Z,67.90
2019-04-26T14:02:11.456Z,69.20
2019-04-26T14:04:37.255Z,68.20
2019-04-26T14:07:14.303Z,66.70
2019-04-26T14:09:44.065Z,66.40
2019-04-26T14:12:18.655Z,63.90
2019-04-26T14:14:51.842Z,63.40
2019-04-26T14:17:26.079Z,63.00
2019-04-26T14:19:56.798Z,63.40
2019-04-26T14:22:36.936Z,63.30
2019-04-26T14:25:11.244Z,64.30
2019-04-26T14:27:51.201Z,61.90
2019-04-26T14:30:22.775Z,63.00
2019-04-26T14:32:56.837Z,61.90
2019-04-26T14:35:25.908Z,60.90
2019-04-26T14:37:58.162Z,61.30
2019-04-26T14:40:27.640Z,63.40
2019-04-26T14:43:06.971Z,65.60
2019-04-26T14:45:31.360Z,63.10
2019-04-26T14:48:19.906Z,64.90
2019-04-26T14:50:39.214Z,66.70
2019-04-26T14:53:10.952Z,67.10
2019-04-26T14:55:40.661Z,61.70
2019-04-26T14:58:13.105Z,59.50
2019-04-26T15:00:47.552Z,60.80
2019-04-26T15:03:57.115Z,59.30
2019-04-26T15:06:33.882Z,60.90
2019-04-26T15:09:18.011Z,58.60
2019-04-26T15:11:55.342Z,59.30
2019-04-26T15:14:22.704Z,61.20
2019-04-26T15:17:00.182Z,59.50
2019-04-26T15:19:35.246Z,60.50
2019-04-26T15:22:35.255Z,62.90
2019-04-26T15:24:52.319Z,63.00
2019-04-26T15:27:22.335Z,62.60
2019-04-26T15:29:57.266Z,63.50
2019-04-26T15:32:31.968Z,64.00
2019-04-26T15:35:01.774Z,63.30
2019-04-26T15:37:33.063Z,63.00
2019-04-26T15:40:22.597Z,61.80
2019-04-26T15:43:17.793Z,64.70
2019-04-26T15:46:02.278Z,62.80
2019-04-26T15:48:59.715Z,62.80
2019-04-26T15:51:30.604Z,63.20
2019-04-26T15:54:00.266Z,62.90
